KKLS/KLS METAR and TAF weather

Enter ICAO airport designator
Station Type Date Time Source
KKLS METAR 2024/04/18 07:56 UTC NOAA

KKLS 180756Z AUTO 00000KT 10SM CLR 07/M03 A3034 RMK AO2 SLP277 T00671028 401781011


Station Type Date Time Source
KKLS Decoded METAR 2024/04/18 07:56 UTC NOAA

Kelso, Kelso-Longview Airport, WA, United States (KKLS) 46-07N 122-54W
Apr 18, 2024 - 03:56 AM EDT / 2024.04.18 0756 UTC
Wind: Calm:0
Visibility: 10 mile(s):0
Sky conditions: clear
Temperature: 44.1 F (6.7 C)
Dew Point: 27.0 F (-2.8 C)
Relative Humidity: 50%
Pressure (altimeter): 30.34 in. Hg (1027 hPa)
ob: KKLS 180756Z AUTO 00000KT 10SM CLR 07/M03 A3034 RMK AO2 SLP277 T00671028 401781011
cycle: 8

Station Type Date Time Source
KKLS TAF UTC NOAA

Error!

Example: see airport list